sensor_id;sensor_type;location;lat;lon;timestamp;P1;durP1;ratioP1;P2;durP2;ratioP2
74309;SDS011;62722;51.142;17.052;2023-04-24T00:02:14;16.83;;;9.02;;
74309;SDS011;62722;51.142;17.052;2023-04-24T00:04:41;13.85;;;8.60;;
74309;SDS011;62722;51.142;17.052;2023-04-24T00:07:10;15.75;;;8.85;;
74309;SDS011;62722;51.142;17.052;2023-04-24T00:09:38;14.93;;;8.27;;
74309;SDS011;62722;51.142;17.052;2023-04-24T00:12:05;17.27;;;9.70;;
74309;SDS011;62722;51.142;17.052;2023-04-24T00:14:33;16.85;;;9.32;;
74309;SDS011;62722;51.142;17.052;2023-04-24T00:17:01;16.27;;;8.50;;
74309;SDS011;62722;51.142;17.052;2023-04-24T00:19:30;15.10;;;8.77;;
74309;SDS011;62722;51.142;17.052;2023-04-24T00:21:57;13.65;;;8.45;;
74309;SDS011;62722;51.142;17.052;2023-04-24T00:24:25;17.77;;;9.88;;
74309;SDS011;62722;51.142;17.052;2023-04-24T00:26:52;17.20;;;9.60;;
74309;SDS011;62722;51.142;17.052;2023-04-24T00:29:20;15.77;;;8.98;;
74309;SDS011;62722;51.142;17.052;2023-04-24T00:31:47;16.00;;;9.60;;
74309;SDS011;62722;51.142;17.052;2023-04-24T00:34:14;16.20;;;9.07;;
74309;SDS011;62722;51.142;17.052;2023-04-24T00:36:43;17.90;;;9.38;;
74309;SDS011;62722;51.142;17.052;2023-04-24T00:39:10;17.83;;;9.50;;
74309;SDS011;62722;51.142;17.052;2023-04-24T00:41:38;15.60;;;9.45;;
74309;SDS011;62722;51.142;17.052;2023-04-24T00:44:05;16.83;;;9.32;;
74309;SDS011;62722;51.142;17.052;2023-04-24T00:46:32;17.30;;;10.55;;
74309;SDS011;62722;51.142;17.052;2023-04-24T00:49:00;13.95;;;9.60;;
74309;SDS011;62722;51.142;17.052;2023-04-24T00:51:27;18.38;;;10.27;;
74309;SDS011;62722;51.142;17.052;2023-04-24T00:53:58;16.33;;;9.55;;
74309;SDS011;62722;51.142;17.052;2023-04-24T00:56:25;15.38;;;9.98;;
74309;SDS011;62722;51.142;17.052;2023-04-24T00:58:52;17.55;;;10.48;;
74309;SDS011;62722;51.142;17.052;2023-04-24T01:01:20;15.50;;;10.38;;
74309;SDS011;62722;51.142;17.052;2023-04-24T01:03:48;16.50;;;10.43;;
74309;SDS011;62722;51.142;17.052;2023-04-24T01:06:18;17.77;;;10.38;;
74309;SDS011;62722;51.142;17.052;2023-04-24T01:08:46;18.88;;;10.65;;
74309;SDS011;62722;51.142;17.052;2023-04-24T01:11:16;18.80;;;10.63;;
74309;SDS011;62722;51.142;17.052;2023-04-24T01:13:44;19.50;;;11.50;;
74309;SDS011;62722;51.142;17.052;2023-04-24T01:16:12;22.10;;;11.65;;
74309;SDS011;62722;51.142;17.052;2023-04-24T01:18:40;18.65;;;11.35;;
74309;SDS011;62722;51.142;17.052;2023-04-24T01:21:07;19.75;;;10.88;;
74309;SDS011;62722;51.142;17.052;2023-04-24T01:23:37;20.13;;;12.20;;
74309;SDS011;62722;51.142;17.052;2023-04-24T01:26:04;19.17;;;11.30;;
74309;SDS011;62722;51.142;17.052;2023-04-24T01:28:32;18.58;;;11.60;;
74309;SDS011;62722;51.142;17.052;2023-04-24T01:30:59;18.20;;;10.82;;
74309;SDS011;62722;51.142;17.052;2023-04-24T01:33:27;21.00;;;11.88;;
74309;SDS011;62722;51.142;17.052;2023-04-24T01:35:54;18.05;;;10.77;;
74309;SDS011;62722;51.142;17.052;2023-04-24T01:38:21;18.15;;;11.20;;
74309;SDS011;62722;51.142;17.052;2023-04-24T01:40:50;20.63;;;11.27;;
74309;SDS011;62722;51.142;17.052;2023-04-24T01:43:18;17.00;;;10.27;;
74309;SDS011;62722;51.142;17.052;2023-04-24T01:45:45;17.63;;;11.43;;
74309;SDS011;62722;51.142;17.052;2023-04-24T01:48:13;17.35;;;11.10;;
74309;SDS011;62722;51.142;17.052;2023-04-24T01:50:40;20.40;;;11.30;;
74309;SDS011;62722;51.142;17.052;2023-04-24T01:53:08;18.98;;;11.13;;
74309;SDS011;62722;51.142;17.052;2023-04-24T01:55:35;22.15;;;13.85;;
74309;SDS011;62722;51.142;17.052;2023-04-24T01:58:04;25.77;;;13.48;;
74309;SDS011;62722;51.142;17.052;2023-04-24T02:00:32;20.65;;;12.70;;
74309;SDS011;62722;51.142;17.052;2023-04-24T02:03:00;17.33;;;11.10;;
74309;SDS011;62722;51.142;17.052;2023-04-24T02:05:27;16.98;;;10.52;;
74309;SDS011;62722;51.142;17.052;2023-04-24T02:07:55;16.50;;;10.75;;
74309;SDS011;62722;51.142;17.052;2023-04-24T02:10:22;18.58;;;10.18;;
74309;SDS011;62722;51.142;17.052;2023-04-24T02:12:50;20.05;;;11.05;;
74309;SDS011;62722;51.142;17.052;2023-04-24T02:15:19;21.02;;;11.30;;
74309;SDS011;62722;51.142;17.052;2023-04-24T02:17:47;17.83;;;10.75;;
74309;SDS011;62722;51.142;17.052;2023-04-24T02:20:14;16.83;;;10.68;;
74309;SDS011;62722;51.142;17.052;2023-04-24T02:22:43;19.10;;;11.18;;
74309;SDS011;62722;51.142;17.052;2023-04-24T02:25:10;20.13;;;11.35;;
74309;SDS011;62722;51.142;17.052;2023-04-24T02:27:37;18.95;;;11.43;;
74309;SDS011;62722;51.142;17.052;2023-04-24T02:30:05;20.58;;;12.13;;
74309;SDS011;62722;51.142;17.052;2023-04-24T02:32:35;23.20;;;12.27;;
74309;SDS011;62722;51.142;17.052;2023-04-24T02:35:04;22.50;;;13.05;;
74309;SDS011;62722;51.142;17.052;2023-04-24T02:37:32;22.02;;;12.30;;
74309;SDS011;62722;51.142;17.052;2023-04-24T02:39:59;22.13;;;11.82;;
74309;SDS011;62722;51.142;17.052;2023-04-24T02:42:27;22.13;;;13.27;;
74309;SDS011;62722;51.142;17.052;2023-04-24T02:44:54;22.88;;;13.40;;
74309;SDS011;62722;51.142;17.052;2023-04-24T02:47:21;23.75;;;13.90;;
74309;SDS011;62722;51.142;17.052;2023-04-24T02:49:50;22.75;;;13.43;;
74309;SDS011;62722;51.142;17.052;2023-04-24T02:52:17;22.73;;;13.05;;
74309;SDS011;62722;51.142;17.052;2023-04-24T02:54:45;19.02;;;12.40;;
74309;SDS011;62722;51.142;17.052;2023-04-24T02:57:12;22.00;;;12.77;;
74309;SDS011;62722;51.142;17.052;2023-04-24T02:59:40;23.05;;;14.10;;
74309;SDS011;62722;51.142;17.052;2023-04-24T03:02:07;23.60;;;13.70;;
74309;SDS011;62722;51.142;17.052;2023-04-24T03:04:34;20.83;;;11.90;;
74309;SDS011;62722;51.142;17.052;2023-04-24T03:07:03;19.73;;;12.07;;
74309;SDS011;62722;51.142;17.052;2023-04-24T03:09:31;20.75;;;12.88;;
74309;SDS011;62722;51.142;17.052;2023-04-24T03:11:58;20.63;;;12.00;;
74309;SDS011;62722;51.142;17.052;2023-04-24T03:14:25;18.83;;;11.13;;
74309;SDS011;62722;51.142;17.052;2023-04-24T03:16:53;22.30;;;12.25;;
74309;SDS011;62722;51.142;17.052;2023-04-24T03:19:20;26.10;;;12.80;;
74309;SDS011;62722;51.142;17.052;2023-04-24T03:21:47;23.75;;;13.70;;
74309;SDS011;62722;51.142;17.052;2023-04-24T03:24:16;21.98;;;12.65;;
74309;SDS011;62722;51.142;17.052;2023-04-24T03:26:44;19.42;;;11.98;;
74309;SDS011;62722;51.142;17.052;2023-04-24T03:29:11;21.58;;;13.00;;
74309;SDS011;62722;51.142;17.052;2023-04-24T03:31:38;20.85;;;12.65;;
74309;SDS011;62722;51.142;17.052;2023-04-24T03:34:05;19.73;;;12.27;;
74309;SDS011;62722;51.142;17.052;2023-04-24T03:36:33;20.35;;;12.90;;
74309;SDS011;62722;51.142;17.052;2023-04-24T03:39:00;21.10;;;11.98;;
74309;SDS011;62722;51.142;17.052;2023-04-24T03:41:29;19.80;;;12.63;;
74309;SDS011;62722;51.142;17.052;2023-04-24T03:43:56;18.40;;;10.90;;
74309;SDS011;62722;51.142;17.052;2023-04-24T03:46:24;20.35;;;11.48;;
74309;SDS011;62722;51.142;17.052;2023-04-24T03:48:51;19.98;;;12.23;;
74309;SDS011;62722;51.142;17.052;2023-04-24T03:51:18;18.92;;;11.30;;
74309;SDS011;62722;51.142;17.052;2023-04-24T03:53:46;18.00;;;10.80;;
74309;SDS011;62722;51.142;17.052;2023-04-24T03:56:13;18.17;;;10.77;;
74309;SDS011;62722;51.142;17.052;2023-04-24T03:58:42;18.70;;;10.82;;
74309;SDS011;62722;51.142;17.052;2023-04-24T04:01:09;19.70;;;11.05;;
74309;SDS011;62722;51.142;17.052;2023-04-24T04:03:37;19.15;;;11.20;;
74309;SDS011;62722;51.142;17.052;2023-04-24T04:06:04;16.48;;;10.38;;
74309;SDS011;62722;51.142;17.052;2023-04-24T04:08:32;18.17;;;11.20;;
74309;SDS011;62722;51.142;17.052;2023-04-24T04:10:59;20.67;;;11.63;;
74309;SDS011;62722;51.142;17.052;2023-04-24T04:13:26;18.27;;;11.38;;
74309;SDS011;62722;51.142;17.052;2023-04-24T04:15:55;16.13;;;10.57;;
74309;SDS011;62722;51.142;17.052;2023-04-24T04:18:23;19.70;;;10.98;;
74309;SDS011;62722;51.142;17.052;2023-04-24T04:20:50;19.13;;;11.82;;
74309;SDS011;62722;51.142;17.052;2023-04-24T04:23:17;19.95;;;12.27;;
74309;SDS011;62722;51.142;17.052;2023-04-24T04:25:45;21.30;;;11.73;;
74309;SDS011;62722;51.142;17.052;2023-04-24T04:28:12;19.08;;;12.00;;
74309;SDS011;62722;51.142;17.052;2023-04-24T04:30:39;24.08;;;13.40;;
74309;SDS011;62722;51.142;17.052;2023-04-24T04:33:09;22.33;;;12.85;;
74309;SDS011;62722;51.142;17.052;2023-04-24T04:35:36;18.63;;;11.55;;
74309;SDS011;62722;51.142;17.052;2023-04-24T04:38:03;21.42;;;12.57;;
74309;SDS011;62722;51.142;17.052;2023-04-24T04:40:34;20.58;;;12.27;;
74309;SDS011;62722;51.142;17.052;2023-04-24T04:43:01;22.05;;;13.00;;
74309;SDS011;62722;51.142;17.052;2023-04-24T04:45:29;21.27;;;13.18;;
74309;SDS011;62722;51.142;17.052;2023-04-24T04:47:58;20.70;;;11.80;;
74309;SDS011;62722;51.142;17.052;2023-04-24T04:50:27;20.80;;;12.25;;
74309;SDS011;62722;51.142;17.052;2023-04-24T04:52:55;21.30;;;11.45;;
74309;SDS011;62722;51.142;17.052;2023-04-24T04:55:22;17.83;;;11.57;;
74309;SDS011;62722;51.142;17.052;2023-04-24T04:57:50;16.65;;;10.80;;
74309;SDS011;62722;51.142;17.052;2023-04-24T05:00:18;17.27;;;10.85;;
74309;SDS011;62722;51.142;17.052;2023-04-24T05:02:45;17.75;;;10.35;;
74309;SDS011;62722;51.142;17.052;2023-04-24T05:05:12;18.58;;;11.75;;
74309;SDS011;62722;51.142;17.052;2023-04-24T05:07:41;19.38;;;11.43;;
74309;SDS011;62722;51.142;17.052;2023-04-24T05:10:09;18.98;;;11.55;;
74309;SDS011;62722;51.142;17.052;2023-04-24T05:12:36;18.33;;;11.68;;
74309;SDS011;62722;51.142;17.052;2023-04-24T05:15:04;18.75;;;11.32;;
74309;SDS011;62722;51.142;17.052;2023-04-24T05:17:32;17.13;;;10.73;;
74309;SDS011;62722;51.142;17.052;2023-04-24T05:20:00;19.20;;;11.35;;
74309;SDS011;62722;51.142;17.052;2023-04-24T05:22:27;18.05;;;11.45;;
74309;SDS011;62722;51.142;17.052;2023-04-24T05:24:56;16.58;;;11.07;;
74309;SDS011;62722;51.142;17.052;2023-04-24T05:27:23;16.40;;;10.52;;
74309;SDS011;62722;51.142;17.052;2023-04-24T05:29:51;17.17;;;11.07;;
74309;SDS011;62722;51.142;17.052;2023-04-24T05:32:18;20.15;;;11.57;;
74309;SDS011;62722;51.142;17.052;2023-04-24T05:34:46;17.10;;;11.40;;
74309;SDS011;62722;51.142;17.052;2023-04-24T05:37:13;16.75;;;10.18;;
74309;SDS011;62722;51.142;17.052;2023-04-24T05:39:40;14.63;;;10.00;;
74309;SDS011;62722;51.142;17.052;2023-04-24T05:42:09;15.13;;;9.55;;
74309;SDS011;62722;51.142;17.052;2023-04-24T05:44:37;15.80;;;10.40;;
74309;SDS011;62722;51.142;17.052;2023-04-24T05:47:04;16.83;;;10.52;;
74309;SDS011;62722;51.142;17.052;2023-04-24T05:49:31;13.88;;;9.43;;
74309;SDS011;62722;51.142;17.052;2023-04-24T05:51:58;13.25;;;8.77;;
74309;SDS011;62722;51.142;17.052;2023-04-24T05:54:26;13.32;;;8.52;;
74309;SDS011;62722;51.142;17.052;2023-04-24T05:56:53;18.35;;;9.35;;
74309;SDS011;62722;51.142;17.052;2023-04-24T05:59:23;14.38;;;9.18;;
74309;SDS011;62722;51.142;17.052;2023-04-24T06:01:50;12.88;;;7.90;;
74309;SDS011;62722;51.142;17.052;2023-04-24T06:04:17;13.52;;;8.50;;
74309;SDS011;62722;51.142;17.052;2023-04-24T06:06:44;12.65;;;7.78;;
74309;SDS011;62722;51.142;17.052;2023-04-24T06:09:12;11.35;;;7.97;;
74309;SDS011;62722;51.142;17.052;2023-04-24T06:11:39;16.05;;;8.07;;
74309;SDS011;62722;51.142;17.052;2023-04-24T06:14:07;12.55;;;7.50;;
74309;SDS011;62722;51.142;17.052;2023-04-24T06:16:36;12.23;;;7.43;;
74309;SDS011;62722;51.142;17.052;2023-04-24T06:19:04;13.25;;;7.65;;
74309;SDS011;62722;51.142;17.052;2023-04-24T06:21:31;13.20;;;7.35;;
74309;SDS011;62722;51.142;17.052;2023-04-24T06:23:59;11.25;;;7.45;;
74309;SDS011;62722;51.142;17.052;2023-04-24T06:26:26;13.38;;;8.68;;
74309;SDS011;62722;51.142;17.052;2023-04-24T06:28:54;12.63;;;7.68;;
74309;SDS011;62722;51.142;17.052;2023-04-24T06:31:21;12.00;;;8.25;;
74309;SDS011;62722;51.142;17.052;2023-04-24T06:33:50;13.95;;;7.75;;
74309;SDS011;62722;51.142;17.052;2023-04-24T06:36:18;13.57;;;7.93;;
74309;SDS011;62722;51.142;17.052;2023-04-24T06:38:45;12.40;;;7.10;;
74309;SDS011;62722;51.142;17.052;2023-04-24T06:41:12;10.93;;;7.47;;
74309;SDS011;62722;51.142;17.052;2023-04-24T06:43:40;12.27;;;7.60;;
74309;SDS011;62722;51.142;17.052;2023-04-24T06:46:07;11.57;;;6.90;;
74309;SDS011;62722;51.142;17.052;2023-04-24T06:48:34;11.15;;;6.95;;
74309;SDS011;62722;51.142;17.052;2023-04-24T06:51:03;14.63;;;7.05;;
74309;SDS011;62722;51.142;17.052;2023-04-24T06:53:30;13.02;;;7.47;;
74309;SDS011;62722;51.142;17.052;2023-04-24T06:55:58;10.60;;;6.90;;
74309;SDS011;62722;51.142;17.052;2023-04-24T06:58:27;9.75;;;6.72;;
74309;SDS011;62722;51.142;17.052;2023-04-24T07:00:54;11.02;;;7.57;;
74309;SDS011;62722;51.142;17.052;2023-04-24T07:03:22;11.85;;;7.05;;
74309;SDS011;62722;51.142;17.052;2023-04-24T07:05:49;11.35;;;7.10;;
74309;SDS011;62722;51.142;17.052;2023-04-24T07:08:18;8.68;;;6.72;;
74309;SDS011;62722;51.142;17.052;2023-04-24T07:10:46;9.18;;;6.57;;
74309;SDS011;62722;51.142;17.052;2023-04-24T07:13:14;9.45;;;6.82;;
74309;SDS011;62722;51.142;17.052;2023-04-24T07:15:41;10.88;;;6.55;;
74309;SDS011;62722;51.142;17.052;2023-04-24T07:18:08;9.95;;;6.70;;
74309;SDS011;62722;51.142;17.052;2023-04-24T07:20:36;8.18;;;6.03;;
74309;SDS011;62722;51.142;17.052;2023-04-24T07:23:03;10.55;;;6.22;;
74309;SDS011;62722;51.142;17.052;2023-04-24T07:25:32;8.50;;;5.63;;
74309;SDS011;62722;51.142;17.052;2023-04-24T07:28:00;8.48;;;5.85;;
74309;SDS011;62722;51.142;17.052;2023-04-24T07:30:27;13.13;;;6.20;;
74309;SDS011;62722;51.142;17.052;2023-04-24T07:32:55;9.27;;;6.55;;
74309;SDS011;62722;51.142;17.052;2023-04-24T07:35:22;9.02;;;6.13;;
74309;SDS011;62722;51.142;17.052;2023-04-24T07:37:51;10.90;;;6.20;;
74309;SDS011;62722;51.142;17.052;2023-04-24T07:40:18;11.00;;;6.25;;
74309;SDS011;62722;51.142;17.052;2023-04-24T07:42:47;9.43;;;5.75;;
74309;SDS011;62722;51.142;17.052;2023-04-24T07:45:14;9.52;;;5.72;;
74309;SDS011;62722;51.142;17.052;2023-04-24T07:47:42;9.13;;;5.78;;
74309;SDS011;62722;51.142;17.052;2023-04-24T07:50:11;8.63;;;5.90;;
74309;SDS011;62722;51.142;17.052;2023-04-24T07:52:38;10.98;;;6.00;;
74309;SDS011;62722;51.142;17.052;2023-04-24T07:55:06;9.15;;;5.78;;
74309;SDS011;62722;51.142;17.052;2023-04-24T07:57:34;7.57;;;5.35;;
74309;SDS011;62722;51.142;17.052;2023-04-24T08:00:04;9.30;;;5.47;;
74309;SDS011;62722;51.142;17.052;2023-04-24T08:02:32;7.80;;;5.30;;
74309;SDS011;62722;51.142;17.052;2023-04-24T08:05:00;7.28;;;4.70;;
74309;SDS011;62722;51.142;17.052;2023-04-24T08:07:28;10.27;;;5.35;;
74309;SDS011;62722;51.142;17.052;2023-04-24T08:09:56;9.35;;;5.63;;
74309;SDS011;62722;51.142;17.052;2023-04-24T08:12:25;8.88;;;4.75;;
74309;SDS011;62722;51.142;17.052;2023-04-24T08:14:52;9.38;;;5.53;;
74309;SDS011;62722;51.142;17.052;2023-04-24T08:17:21;8.65;;;5.15;;
74309;SDS011;62722;51.142;17.052;2023-04-24T08:19:48;8.10;;;4.97;;
74309;SDS011;62722;51.142;17.052;2023-04-24T08:22:16;10.95;;;5.30;;
74309;SDS011;62722;51.142;17.052;2023-04-24T08:24:44;7.90;;;5.18;;
74309;SDS011;62722;51.142;17.052;2023-04-24T08:27:11;9.27;;;5.32;;
74309;SDS011;62722;51.142;17.052;2023-04-24T08:29:39;8.55;;;5.30;;
74309;SDS011;62722;51.142;17.052;2023-04-24T08:32:06;6.45;;;4.75;;
74309;SDS011;62722;51.142;17.052;2023-04-24T08:34:35;8.57;;;5.05;;
74309;SDS011;62722;51.142;17.052;2023-04-24T08:37:02;7.47;;;5.10;;
74309;SDS011;62722;51.142;17.052;2023-04-24T08:39:29;7.53;;;4.93;;
74309;SDS011;62722;51.142;17.052;2023-04-24T08:41:57;7.90;;;5.05;;
74309;SDS011;62722;51.142;17.052;2023-04-24T08:44:30;9.80;;;6.15;;
74309;SDS011;62722;51.142;17.052;2023-04-24T08:46:59;10.35;;;5.47;;
74309;SDS011;62722;51.142;17.052;2023-04-24T08:49:28;9.15;;;5.43;;
74309;SDS011;62722;51.142;17.052;2023-04-24T08:51:57;7.18;;;5.30;;
74309;SDS011;62722;51.142;17.052;2023-04-24T08:54:26;7.57;;;5.28;;
74309;SDS011;62722;51.142;17.052;2023-04-24T08:56:53;8.65;;;5.35;;
74309;SDS011;62722;51.142;17.052;2023-04-24T08:59:27;9.57;;;5.53;;
74309;SDS011;62722;51.142;17.052;2023-04-24T09:01:56;8.90;;;5.65;;
74309;SDS011;62722;51.142;17.052;2023-04-24T09:04:24;8.27;;;5.10;;
74309;SDS011;62722;51.142;17.052;2023-04-24T09:06:52;7.15;;;4.75;;
74309;SDS011;62722;51.142;17.052;2023-04-24T09:09:24;7.88;;;4.60;;
74309;SDS011;62722;51.142;17.052;2023-04-24T09:11:52;6.38;;;4.22;;
74309;SDS011;62722;51.142;17.052;2023-04-24T09:14:20;5.82;;;3.95;;
74309;SDS011;62722;51.142;17.052;2023-04-24T09:16:49;8.63;;;4.88;;
74309;SDS011;62722;51.142;17.052;2023-04-24T09:19:17;5.60;;;3.88;;
74309;SDS011;62722;51.142;17.052;2023-04-24T09:21:45;7.65;;;3.92;;
74309;SDS011;62722;51.142;17.052;2023-04-24T09:24:15;6.40;;;4.25;;
74309;SDS011;62722;51.142;17.052;2023-04-24T09:26:48;5.60;;;4.18;;
74309;SDS011;62722;51.142;17.052;2023-04-24T09:29:16;6.03;;;3.60;;
74309;SDS011;62722;51.142;17.052;2023-04-24T09:31:44;5.45;;;3.75;;
74309;SDS011;62722;51.142;17.052;2023-04-24T09:34:12;5.05;;;3.92;;
74309;SDS011;62722;51.142;17.052;2023-04-24T09:36:41;6.45;;;4.32;;
74309;SDS011;62722;51.142;17.052;2023-04-24T09:39:10;5.47;;;3.80;;
74309;SDS011;62722;51.142;17.052;2023-04-24T09:41:44;6.53;;;3.92;;
74309;SDS011;62722;51.142;17.052;2023-04-24T09:44:14;7.95;;;4.90;;
74309;SDS011;62722;51.142;17.052;2023-04-24T09:46:42;8.60;;;4.68;;
74309;SDS011;62722;51.142;17.052;2023-04-24T09:49:12;5.75;;;3.67;;
74309;SDS011;62722;51.142;17.052;2023-04-24T09:51:42;7.00;;;4.88;;
74309;SDS011;62722;51.142;17.052;2023-04-24T09:54:13;9.63;;;5.30;;
74309;SDS011;62722;51.142;17.052;2023-04-24T09:56:43;8.48;;;4.53;;
74309;SDS011;62722;51.142;17.052;2023-04-24T09:59:12;7.35;;;4.63;;
74309;SDS011;62722;51.142;17.052;2023-04-24T10:01:41;8.45;;;6.13;;
74309;SDS011;62722;51.142;17.052;2023-04-24T10:04:16;8.07;;;5.18;;
74309;SDS011;62722;51.142;17.052;2023-04-24T10:06:45;7.60;;;5.45;;
74309;SDS011;62722;51.142;17.052;2023-04-24T10:09:14;9.27;;;5.75;;
74309;SDS011;62722;51.142;17.052;2023-04-24T10:11:42;7.10;;;4.82;;
74309;SDS011;62722;51.142;17.052;2023-04-24T10:14:11;9.40;;;5.30;;
74309;SDS011;62722;51.142;17.052;2023-04-24T10:16:42;6.95;;;4.55;;
74309;SDS011;62722;51.142;17.052;2023-04-24T10:19:10;7.55;;;4.97;;
74309;SDS011;62722;51.142;17.052;2023-04-24T10:21:39;7.00;;;4.78;;
74309;SDS011;62722;51.142;17.052;2023-04-24T10:24:08;8.40;;;5.10;;
74309;SDS011;62722;51.142;17.052;2023-04-24T10:26:35;9.32;;;5.50;;
74309;SDS011;62722;51.142;17.052;2023-04-24T10:29:03;7.63;;;5.22;;
74309;SDS011;62722;51.142;17.052;2023-04-24T10:31:37;8.73;;;5.03;;
74309;SDS011;62722;51.142;17.052;2023-04-24T10:34:05;7.40;;;5.65;;
74309;SDS011;62722;51.142;17.052;2023-04-24T10:36:33;7.60;;;4.78;;
74309;SDS011;62722;51.142;17.052;2023-04-24T10:39:02;6.63;;;4.53;;
74309;SDS011;62722;51.142;17.052;2023-04-24T10:44:06;7.45;;;4.43;;
74309;SDS011;62722;51.142;17.052;2023-04-24T10:46:37;6.13;;;4.10;;
74309;SDS011;62722;51.142;17.052;2023-04-24T10:49:05;5.68;;;3.40;;
74309;SDS011;62722;51.142;17.052;2023-04-24T10:51:47;6.53;;;3.40;;
74309;SDS011;62722;51.142;17.052;2023-04-24T10:54:28;6.70;;;4.40;;
74309;SDS011;62722;51.142;17.052;2023-04-24T11:02:56;5.93;;;4.20;;
74309;SDS011;62722;51.142;17.052;2023-04-24T11:08:21;7.38;;;3.67;;
74309;SDS011;62722;51.142;17.052;2023-04-24T11:10:55;6.03;;;4.05;;
74309;SDS011;62722;51.142;17.052;2023-04-24T11:13:26;7.45;;;4.57;;
74309;SDS011;62722;51.142;17.052;2023-04-24T11:16:13;7.03;;;4.65;;
74309;SDS011;62722;51.142;17.052;2023-04-24T11:18:43;6.63;;;4.38;;
74309;SDS011;62722;51.142;17.052;2023-04-24T11:21:16;7.03;;;5.22;;
74309;SDS011;62722;51.142;17.052;2023-04-24T11:23:44;8.43;;;5.35;;
74309;SDS011;62722;51.142;17.052;2023-04-24T11:26:12;7.93;;;5.25;;
74309;SDS011;62722;51.142;17.052;2023-04-24T11:28:44;10.95;;;5.90;;
74309;SDS011;62722;51.142;17.052;2023-04-24T11:34:08;10.30;;;6.00;;
74309;SDS011;62722;51.142;17.052;2023-04-24T11:36:36;7.47;;;5.72;;
74309;SDS011;62722;51.142;17.052;2023-04-24T11:39:04;8.95;;;5.97;;
74309;SDS011;62722;51.142;17.052;2023-04-24T11:41:31;8.45;;;5.47;;
74309;SDS011;62722;51.142;17.052;2023-04-24T11:44:00;6.43;;;4.88;;
74309;SDS011;62722;51.142;17.052;2023-04-24T11:46:29;7.50;;;5.10;;
74309;SDS011;62722;51.142;17.052;2023-04-24T11:48:57;6.97;;;4.88;;
74309;SDS011;62722;51.142;17.052;2023-04-24T11:51:27;7.18;;;4.93;;
74309;SDS011;62722;51.142;17.052;2023-04-24T11:53:55;6.40;;;4.70;;
74309;SDS011;62722;51.142;17.052;2023-04-24T11:56:22;8.18;;;5.13;;
74309;SDS011;62722;51.142;17.052;2023-04-24T11:58:51;7.07;;;4.80;;
74309;SDS011;62722;51.142;17.052;2023-04-24T12:01:20;6.75;;;4.53;;
74309;SDS011;62722;51.142;17.052;2023-04-24T12:03:49;7.72;;;4.55;;
74309;SDS011;62722;51.142;17.052;2023-04-24T12:06:17;6.38;;;4.78;;
74309;SDS011;62722;51.142;17.052;2023-04-24T12:08:47;8.27;;;5.47;;
74309;SDS011;62722;51.142;17.052;2023-04-24T12:11:15;6.05;;;4.57;;
74309;SDS011;62722;51.142;17.052;2023-04-24T12:13:45;6.47;;;4.88;;
74309;SDS011;62722;51.142;17.052;2023-04-24T12:16:12;7.30;;;5.03;;
74309;SDS011;62722;51.142;17.052;2023-04-24T12:18:43;6.68;;;5.10;;
74309;SDS011;62722;51.142;17.052;2023-04-24T12:21:14;7.50;;;4.72;;
74309;SDS011;62722;51.142;17.052;2023-04-24T12:23:43;6.03;;;4.75;;
74309;SDS011;62722;51.142;17.052;2023-04-24T12:26:12;6.28;;;4.32;;
74309;SDS011;62722;51.142;17.052;2023-04-24T12:28:45;6.75;;;4.60;;
74309;SDS011;62722;51.142;17.052;2023-04-24T12:31:14;6.47;;;4.30;;
74309;SDS011;62722;51.142;17.052;2023-04-24T12:33:42;7.00;;;4.07;;
74309;SDS011;62722;51.142;17.052;2023-04-24T12:36:10;6.38;;;4.18;;
74309;SDS011;62722;51.142;17.052;2023-04-24T12:38:39;6.60;;;4.85;;
74309;SDS011;62722;51.142;17.052;2023-04-24T12:41:10;5.28;;;4.30;;
74309;SDS011;62722;51.142;17.052;2023-04-24T12:43:50;8.63;;;4.78;;
74309;SDS011;62722;51.142;17.052;2023-04-24T12:46:18;8.75;;;5.13;;
74309;SDS011;62722;51.142;17.052;2023-04-24T12:48:46;7.07;;;4.78;;
74309;SDS011;62722;51.142;17.052;2023-04-24T12:51:13;7.35;;;4.57;;
74309;SDS011;62722;51.142;17.052;2023-04-24T12:53:41;10.30;;;5.75;;
74309;SDS011;62722;51.142;17.052;2023-04-24T12:56:08;8.23;;;4.80;;
74309;SDS011;62722;51.142;17.052;2023-04-24T12:58:37;7.90;;;4.60;;
74309;SDS011;62722;51.142;17.052;2023-04-24T13:01:04;7.45;;;4.32;;
74309;SDS011;62722;51.142;17.052;2023-04-24T13:03:32;7.03;;;4.43;;
74309;SDS011;62722;51.142;17.052;2023-04-24T13:05:59;6.65;;;4.07;;
74309;SDS011;62722;51.142;17.052;2023-04-24T13:08:26;6.03;;;4.15;;
74309;SDS011;62722;51.142;17.052;2023-04-24T13:10:54;6.82;;;4.18;;
74309;SDS011;62722;51.142;17.052;2023-04-24T13:13:21;6.63;;;4.03;;
74309;SDS011;62722;51.142;17.052;2023-04-24T13:15:50;5.93;;;3.63;;
74309;SDS011;62722;51.142;17.052;2023-04-24T13:18:17;4.13;;;2.85;;
74309;SDS011;62722;51.142;17.052;2023-04-24T13:20:44;3.92;;;2.50;;
74309;SDS011;62722;51.142;17.052;2023-04-24T13:23:13;3.00;;;1.90;;
74309;SDS011;62722;51.142;17.052;2023-04-24T13:25:40;4.32;;;1.88;;
74309;SDS011;62722;51.142;17.052;2023-04-24T13:28:08;3.40;;;1.50;;
74309;SDS011;62722;51.142;17.052;2023-04-24T13:30:35;2.60;;;1.30;;
74309;SDS011;62722;51.142;17.052;2023-04-24T13:33:04;5.97;;;1.98;;
74309;SDS011;62722;51.142;17.052;2023-04-24T13:35:31;2.55;;;1.27;;
74309;SDS011;62722;51.142;17.052;2023-04-24T13:37:59;2.60;;;1.33;;
74309;SDS011;62722;51.142;17.052;2023-04-24T13:40:26;2.90;;;1.20;;
74309;SDS011;62722;51.142;17.052;2023-04-24T13:42:54;2.70;;;1.30;;
74309;SDS011;62722;51.142;17.052;2023-04-24T13:45:21;2.75;;;1.50;;
74309;SDS011;62722;51.142;17.052;2023-04-24T13:47:49;2.55;;;1.20;;
74309;SDS011;62722;51.142;17.052;2023-04-24T13:50:17;2.75;;;1.40;;
74309;SDS011;62722;51.142;17.052;2023-04-24T13:52:45;2.90;;;1.10;;
74309;SDS011;62722;51.142;17.052;2023-04-24T13:55:12;3.55;;;1.20;;
74309;SDS011;62722;51.142;17.052;2023-04-24T13:57:39;3.10;;;1.08;;
74309;SDS011;62722;51.142;17.052;2023-04-24T14:00:07;4.45;;;1.20;;
74309;SDS011;62722;51.142;17.052;2023-04-24T14:02:36;4.55;;;1.60;;
74309;SDS011;62722;51.142;17.052;2023-04-24T14:05:04;3.00;;;1.10;;
74309;SDS011;62722;51.142;17.052;2023-04-24T14:07:33;6.72;;;2.10;;
74309;SDS011;62722;51.142;17.052;2023-04-24T14:10:00;5.90;;;2.45;;
74309;SDS011;62722;51.142;17.052;2023-04-24T14:12:28;6.47;;;2.17;;
74309;SDS011;62722;51.142;17.052;2023-04-24T14:14:55;7.82;;;2.03;;
74309;SDS011;62722;51.142;17.052;2023-04-24T14:17:23;3.22;;;1.88;;
74309;SDS011;62722;51.142;17.052;2023-04-24T14:19:50;3.97;;;1.75;;
74309;SDS011;62722;51.142;17.052;2023-04-24T14:22:18;3.17;;;1.60;;
74309;SDS011;62722;51.142;17.052;2023-04-24T14:24:47;16.02;;;5.20;;
74309;SDS011;62722;51.142;17.052;2023-04-24T14:27:14;3.17;;;1.52;;
74309;SDS011;62722;51.142;17.052;2023-04-24T14:29:41;3.05;;;1.80;;
74309;SDS011;62722;51.142;17.052;2023-04-24T14:32:10;3.88;;;1.85;;
74309;SDS011;62722;51.142;17.052;2023-04-24T14:34:40;4.65;;;1.98;;
74309;SDS011;62722;51.142;17.052;2023-04-24T14:37:07;3.13;;;1.70;;
74309;SDS011;62722;51.142;17.052;2023-04-24T14:39:35;4.93;;;2.35;;
74309;SDS011;62722;51.142;17.052;2023-04-24T14:42:04;3.03;;;1.63;;
74309;SDS011;62722;51.142;17.052;2023-04-24T14:44:31;2.85;;;1.80;;